sensor_id;sensor_type;location;lat;lon;timestamp;temperature;humidity
34279;DHT22;20538;51.528;9.942;2023-03-24T00:00:42;12.30;99.90
34279;DHT22;20538;51.528;9.942;2023-03-24T00:03:07;12.30;99.90
34279;DHT22;20538;51.528;9.942;2023-03-24T00:05:33;12.30;99.90
34279;DHT22;20538;51.528;9.942;2023-03-24T00:07:59;12.30;99.90
34279;DHT22;20538;51.528;9.942;2023-03-24T00:10:26;12.30;99.90
34279;DHT22;20538;51.528;9.942;2023-03-24T00:12:55;12.20;99.90
34279;DHT22;20538;51.528;9.942;2023-03-24T00:15:23;12.20;99.90
34279;DHT22;20538;51.528;9.942;2023-03-24T00:17:49;12.20;99.90
34279;DHT22;20538;51.528;9.942;2023-03-24T00:20:17;12.10;99.90
34279;DHT22;20538;51.528;9.942;2023-03-24T00:22:46;12.10;99.90
34279;DHT22;20538;51.528;9.942;2023-03-24T00:25:17;12.00;99.90
34279;DHT22;20538;51.528;9.942;2023-03-24T00:27:43;11.90;99.90
34279;DHT22;20538;51.528;9.942;2023-03-24T00:30:10;11.90;99.90
34279;DHT22;20538;51.528;9.942;2023-03-24T00:32:37;11.90;99.90
34279;DHT22;20538;51.528;9.942;2023-03-24T00:35:05;11.90;99.90
34279;DHT22;20538;51.528;9.942;2023-03-24T00:37:34;11.80;99.90
34279;DHT22;20538;51.528;9.942;2023-03-24T00:40:03;11.80;99.90
34279;DHT22;20538;51.528;9.942;2023-03-24T00:42:33;11.80;99.90
34279;DHT22;20538;51.528;9.942;2023-03-24T00:45:00;11.90;99.90
34279;DHT22;20538;51.528;9.942;2023-03-24T00:47:28;11.90;99.90
34279;DHT22;20538;51.528;9.942;2023-03-24T00:49:54;11.90;99.90
34279;DHT22;20538;51.528;9.942;2023-03-24T00:52:23;11.90;99.90
34279;DHT22;20538;51.528;9.942;2023-03-24T00:54:51;11.90;99.90
34279;DHT22;20538;51.528;9.942;2023-03-24T00:57:20;11.90;99.90
34279;DHT22;20538;51.528;9.942;2023-03-24T00:59:49;11.90;99.90
34279;DHT22;20538;51.528;9.942;2023-03-24T01:02:24;11.90;99.90
34279;DHT22;20538;51.528;9.942;2023-03-24T01:04:54;12.00;99.90
34279;DHT22;20538;51.528;9.942;2023-03-24T01:07:21;12.00;99.90
34279;DHT22;20538;51.528;9.942;2023-03-24T01:09:47;12.00;99.90
34279;DHT22;20538;51.528;9.942;2023-03-24T01:12:18;12.10;99.90
34279;DHT22;20538;51.528;9.942;2023-03-24T01:14:44;12.10;99.90
34279;DHT22;20538;51.528;9.942;2023-03-24T01:17:10;12.20;99.90
34279;DHT22;20538;51.528;9.942;2023-03-24T01:19:36;12.20;99.90
34279;DHT22;20538;51.528;9.942;2023-03-24T01:22:02;12.20;99.90
34279;DHT22;20538;51.528;9.942;2023-03-24T01:24:28;12.20;99.90
34279;DHT22;20538;51.528;9.942;2023-03-24T01:26:54;12.20;99.90
34279;DHT22;20538;51.528;9.942;2023-03-24T01:29:19;12.20;99.90
34279;DHT22;20538;51.528;9.942;2023-03-24T01:31:45;12.20;99.90
34279;DHT22;20538;51.528;9.942;2023-03-24T01:34:11;12.20;99.90
34279;DHT22;20538;51.528;9.942;2023-03-24T01:36:36;12.20;99.90
34279;DHT22;20538;51.528;9.942;2023-03-24T01:39:02;12.20;99.90
34279;DHT22;20538;51.528;9.942;2023-03-24T01:41:35;12.20;99.90
34279;DHT22;20538;51.528;9.942;2023-03-24T01:44:32;12.20;99.90
34279;DHT22;20538;51.528;9.942;2023-03-24T01:46:58;12.30;99.90
34279;DHT22;20538;51.528;9.942;2023-03-24T01:49:28;12.20;99.90
34279;DHT22;20538;51.528;9.942;2023-03-24T01:51:59;12.20;99.90
34279;DHT22;20538;51.528;9.942;2023-03-24T01:55:04;12.20;99.90
34279;DHT22;20538;51.528;9.942;2023-03-24T01:57:46;12.20;99.90
34279;DHT22;20538;51.528;9.942;2023-03-24T02:00:16;12.20;99.90
34279;DHT22;20538;51.528;9.942;2023-03-24T02:02:49;12.20;99.90
34279;DHT22;20538;51.528;9.942;2023-03-24T02:05:22;12.20;99.90
34279;DHT22;20538;51.528;9.942;2023-03-24T02:07:58;12.20;99.90
34279;DHT22;20538;51.528;9.942;2023-03-24T02:10:26;12.20;99.90
34279;DHT22;20538;51.528;9.942;2023-03-24T02:12:55;12.20;99.90
34279;DHT22;20538;51.528;9.942;2023-03-24T02:15:21;12.10;99.90
34279;DHT22;20538;51.528;9.942;2023-03-24T02:18:42;12.10;99.90
34279;DHT22;20538;51.528;9.942;2023-03-24T02:47:09;12.00;99.90
34279;DHT22;20538;51.528;9.942;2023-03-24T02:55:25;12.00;99.90
34279;DHT22;20538;51.528;9.942;2023-03-24T02:58:00;12.00;99.90
34279;DHT22;20538;51.528;9.942;2023-03-24T03:00:42;12.00;99.90
34279;DHT22;20538;51.528;9.942;2023-03-24T03:03:35;12.00;99.90
34279;DHT22;20538;51.528;9.942;2023-03-24T03:08:36;12.00;99.90
34279;DHT22;20538;51.528;9.942;2023-03-24T03:11:05;12.00;99.90
34279;DHT22;20538;51.528;9.942;2023-03-24T03:13:43;12.00;99.90
34279;DHT22;20538;51.528;9.942;2023-03-24T03:16:20;12.00;99.90
34279;DHT22;20538;51.528;9.942;2023-03-24T03:18:52;12.00;99.90
34279;DHT22;20538;51.528;9.942;2023-03-24T03:21:22;12.00;99.90
34279;DHT22;20538;51.528;9.942;2023-03-24T03:23:56;12.00;99.90
34279;DHT22;20538;51.528;9.942;2023-03-24T03:26:24;12.00;99.90
34279;DHT22;20538;51.528;9.942;2023-03-24T03:28:56;12.00;99.90
34279;DHT22;20538;51.528;9.942;2023-03-24T03:31:39;12.00;99.90
34279;DHT22;20538;51.528;9.942;2023-03-24T03:34:24;11.90;99.90
34279;DHT22;20538;51.528;9.942;2023-03-24T03:39:33;11.90;99.90
34279;DHT22;20538;51.528;9.942;2023-03-24T03:42:02;11.90;99.90
34279;DHT22;20538;51.528;9.942;2023-03-24T03:44:30;11.90;99.90
34279;DHT22;20538;51.528;9.942;2023-03-24T03:46:56;11.90;99.90
34279;DHT22;20538;51.528;9.942;2023-03-24T03:49:22;11.80;99.90
34279;DHT22;20538;51.528;9.942;2023-03-24T03:51:49;11.80;99.90
34279;DHT22;20538;51.528;9.942;2023-03-24T03:54:17;11.80;99.90
34279;DHT22;20538;51.528;9.942;2023-03-24T03:56:43;11.80;99.90
34279;DHT22;20538;51.528;9.942;2023-03-24T04:01:51;11.80;99.90
34279;DHT22;20538;51.528;9.942;2023-03-24T04:04:30;11.80;99.90
34279;DHT22;20538;51.528;9.942;2023-03-24T04:10:21;11.90;99.90
34279;DHT22;20538;51.528;9.942;2023-03-24T04:13:09;11.90;99.90
34279;DHT22;20538;51.528;9.942;2023-03-24T04:16:08;11.90;99.90
34279;DHT22;20538;51.528;9.942;2023-03-24T04:26:47;11.90;99.90
34279;DHT22;20538;51.528;9.942;2023-03-24T04:32:28;11.80;99.90
34279;DHT22;20538;51.528;9.942;2023-03-24T04:34:59;11.80;99.90
34279;DHT22;20538;51.528;9.942;2023-03-24T04:37:30;11.80;99.90
34279;DHT22;20538;51.528;9.942;2023-03-24T04:39:58;11.80;99.90
34279;DHT22;20538;51.528;9.942;2023-03-24T04:42:31;11.80;99.90
34279;DHT22;20538;51.528;9.942;2023-03-24T04:44:59;11.80;99.90
34279;DHT22;20538;51.528;9.942;2023-03-24T04:47:27;11.70;99.90
34279;DHT22;20538;51.528;9.942;2023-03-24T04:50:01;11.70;99.90
34279;DHT22;20538;51.528;9.942;2023-03-24T04:52:27;11.70;99.90
34279;DHT22;20538;51.528;9.942;2023-03-24T04:54:53;11.70;99.90
34279;DHT22;20538;51.528;9.942;2023-03-24T04:57:19;11.70;99.90
34279;DHT22;20538;51.528;9.942;2023-03-24T04:59:45;11.70;99.90
34279;DHT22;20538;51.528;9.942;2023-03-24T05:02:11;11.60;99.90
34279;DHT22;20538;51.528;9.942;2023-03-24T05:04:36;11.60;99.90
34279;DHT22;20538;51.528;9.942;2023-03-24T05:07:03;11.60;99.90
34279;DHT22;20538;51.528;9.942;2023-03-24T05:09:29;11.60;99.90
34279;DHT22;20538;51.528;9.942;2023-03-24T05:11:56;11.60;99.90
34279;DHT22;20538;51.528;9.942;2023-03-24T05:14:22;11.60;99.90
34279;DHT22;20538;51.528;9.942;2023-03-24T05:16:48;11.60;99.90
34279;DHT22;20538;51.528;9.942;2023-03-24T05:19:14;11.60;99.90
34279;DHT22;20538;51.528;9.942;2023-03-24T05:21:40;11.60;99.90
34279;DHT22;20538;51.528;9.942;2023-03-24T05:24:06;11.60;99.90
34279;DHT22;20538;51.528;9.942;2023-03-24T05:26:32;11.60;99.90
34279;DHT22;20538;51.528;9.942;2023-03-24T05:28:58;11.60;99.90
34279;DHT22;20538;51.528;9.942;2023-03-24T05:31:23;11.70;99.90
34279;DHT22;20538;51.528;9.942;2023-03-24T05:33:49;11.70;99.90
34279;DHT22;20538;51.528;9.942;2023-03-24T05:36:15;11.70;99.90
34279;DHT22;20538;51.528;9.942;2023-03-24T05:38:41;11.70;99.90
34279;DHT22;20538;51.528;9.942;2023-03-24T05:41:06;11.70;99.90
34279;DHT22;20538;51.528;9.942;2023-03-24T05:43:32;11.70;99.90
34279;DHT22;20538;51.528;9.942;2023-03-24T05:45:58;11.80;99.90
34279;DHT22;20538;51.528;9.942;2023-03-24T05:48:26;11.80;99.90
34279;DHT22;20538;51.528;9.942;2023-03-24T05:50:52;11.80;99.90
34279;DHT22;20538;51.528;9.942;2023-03-24T05:53:18;11.80;99.90
34279;DHT22;20538;51.528;9.942;2023-03-24T05:55:44;11.80;99.90
34279;DHT22;20538;51.528;9.942;2023-03-24T05:58:10;11.90;99.90
34279;DHT22;20538;51.528;9.942;2023-03-24T06:00:37;11.90;99.90
34279;DHT22;20538;51.528;9.942;2023-03-24T06:03:03;11.90;99.90
34279;DHT22;20538;51.528;9.942;2023-03-24T06:05:30;11.90;99.90
34279;DHT22;20538;51.528;9.942;2023-03-24T06:07:57;11.90;99.90
34279;DHT22;20538;51.528;9.942;2023-03-24T06:10:27;11.90;99.90
34279;DHT22;20538;51.528;9.942;2023-03-24T06:12:53;11.90;99.90
34279;DHT22;20538;51.528;9.942;2023-03-24T06:15:20;11.90;99.90
34279;DHT22;20538;51.528;9.942;2023-03-24T06:17:47;11.90;99.90
34279;DHT22;20538;51.528;9.942;2023-03-24T06:20:15;11.90;99.90
34279;DHT22;20538;51.528;9.942;2023-03-24T06:22:44;12.00;99.90
34279;DHT22;20538;51.528;9.942;2023-03-24T06:25:11;12.00;99.90
34279;DHT22;20538;51.528;9.942;2023-03-24T06:27:41;12.00;99.90
34279;DHT22;20538;51.528;9.942;2023-03-24T06:30:11;12.10;99.90
34279;DHT22;20538;51.528;9.942;2023-03-24T06:32:39;12.10;99.90
34279;DHT22;20538;51.528;9.942;2023-03-24T06:35:05;12.20;99.90
34279;DHT22;20538;51.528;9.942;2023-03-24T06:37:31;12.20;99.90
34279;DHT22;20538;51.528;9.942;2023-03-24T06:39:57;12.30;99.90
34279;DHT22;20538;51.528;9.942;2023-03-24T06:42:25;12.30;99.90
34279;DHT22;20538;51.528;9.942;2023-03-24T06:44:51;12.40;99.90
34279;DHT22;20538;51.528;9.942;2023-03-24T06:47:17;12.50;99.90
34279;DHT22;20538;51.528;9.942;2023-03-24T06:49:42;12.70;99.90
34279;DHT22;20538;51.528;9.942;2023-03-24T06:52:08;12.70;99.90
34279;DHT22;20538;51.528;9.942;2023-03-24T06:54:34;12.70;99.90
34279;DHT22;20538;51.528;9.942;2023-03-24T06:56:59;12.80;99.90
34279;DHT22;20538;51.528;9.942;2023-03-24T06:59:25;12.90;99.90
34279;DHT22;20538;51.528;9.942;2023-03-24T07:01:52;12.90;99.90
34279;DHT22;20538;51.528;9.942;2023-03-24T07:04:19;12.90;99.90
34279;DHT22;20538;51.528;9.942;2023-03-24T07:06:45;13.00;99.90
34279;DHT22;20538;51.528;9.942;2023-03-24T07:09:12;13.00;99.90
34279;DHT22;20538;51.528;9.942;2023-03-24T07:11:38;13.00;99.90
34279;DHT22;20538;51.528;9.942;2023-03-24T07:14:03;13.00;99.90
34279;DHT22;20538;51.528;9.942;2023-03-24T07:16:29;13.00;99.90
34279;DHT22;20538;51.528;9.942;2023-03-24T07:18:55;13.00;99.90
34279;DHT22;20538;51.528;9.942;2023-03-24T07:21:21;13.10;99.90
34279;DHT22;20538;51.528;9.942;2023-03-24T07:23:46;13.10;99.90
34279;DHT22;20538;51.528;9.942;2023-03-24T07:26:12;13.10;99.90
34279;DHT22;20538;51.528;9.942;2023-03-24T07:28:38;13.20;99.90
34279;DHT22;20538;51.528;9.942;2023-03-24T07:31:04;13.20;99.90
34279;DHT22;20538;51.528;9.942;2023-03-24T07:33:31;13.10;99.90
34279;DHT22;20538;51.528;9.942;2023-03-24T07:35:57;13.00;99.90
34279;DHT22;20538;51.528;9.942;2023-03-24T07:38:25;12.90;99.90
34279;DHT22;20538;51.528;9.942;2023-03-24T07:40:51;12.90;99.90
34279;DHT22;20538;51.528;9.942;2023-03-24T07:43:16;12.80;99.90
34279;DHT22;20538;51.528;9.942;2023-03-24T07:45:45;12.80;99.90
34279;DHT22;20538;51.528;9.942;2023-03-24T07:48:11;12.60;99.90
34279;DHT22;20538;51.528;9.942;2023-03-24T07:50:37;12.20;99.90
34279;DHT22;20538;51.528;9.942;2023-03-24T07:53:03;12.10;99.90
34279;DHT22;20538;51.528;9.942;2023-03-24T07:55:29;12.10;99.90
34279;DHT22;20538;51.528;9.942;2023-03-24T07:57:54;12.20;99.90
34279;DHT22;20538;51.528;9.942;2023-03-24T08:00:20;12.10;99.90
34279;DHT22;20538;51.528;9.942;2023-03-24T08:02:50;12.20;99.90
34279;DHT22;20538;51.528;9.942;2023-03-24T08:05:17;12.40;99.90
34279;DHT22;20538;51.528;9.942;2023-03-24T08:07:45;12.50;99.90
34279;DHT22;20538;51.528;9.942;2023-03-24T08:10:27;12.60;99.90
34279;DHT22;20538;51.528;9.942;2023-03-24T08:12:54;12.70;99.90
34279;DHT22;20538;51.528;9.942;2023-03-24T08:15:20;12.80;99.90
34279;DHT22;20538;51.528;9.942;2023-03-24T08:17:47;12.80;99.90
34279;DHT22;20538;51.528;9.942;2023-03-24T08:20:13;12.80;99.90
34279;DHT22;20538;51.528;9.942;2023-03-24T08:22:44;13.00;99.90
34279;DHT22;20538;51.528;9.942;2023-03-24T08:25:16;13.00;99.90
34279;DHT22;20538;51.528;9.942;2023-03-24T08:27:41;13.20;99.90
34279;DHT22;20538;51.528;9.942;2023-03-24T08:30:14;13.30;99.90
34279;DHT22;20538;51.528;9.942;2023-03-24T08:32:46;13.70;99.90
34279;DHT22;20538;51.528;9.942;2023-03-24T08:35:13;14.00;99.90
34279;DHT22;20538;51.528;9.942;2023-03-24T08:37:40;14.10;99.90
34279;DHT22;20538;51.528;9.942;2023-03-24T08:40:12;14.10;99.90
34279;DHT22;20538;51.528;9.942;2023-03-24T08:42:42;14.10;99.90
34279;DHT22;20538;51.528;9.942;2023-03-24T08:45:11;14.10;99.90
34279;DHT22;20538;51.528;9.942;2023-03-24T08:47:38;13.70;99.90
34279;DHT22;20538;51.528;9.942;2023-03-24T08:50:05;13.80;99.90
34279;DHT22;20538;51.528;9.942;2023-03-24T08:52:31;13.90;99.90
34279;DHT22;20538;51.528;9.942;2023-03-24T08:54:57;14.10;99.90
34279;DHT22;20538;51.528;9.942;2023-03-24T08:57:22;14.10;99.90
34279;DHT22;20538;51.528;9.942;2023-03-24T08:59:48;14.10;99.90
34279;DHT22;20538;51.528;9.942;2023-03-24T09:02:14;14.20;99.90
34279;DHT22;20538;51.528;9.942;2023-03-24T09:04:39;14.20;99.90
34279;DHT22;20538;51.528;9.942;2023-03-24T09:07:08;14.20;99.90
34279;DHT22;20538;51.528;9.942;2023-03-24T09:09:35;14.30;99.90
34279;DHT22;20538;51.528;9.942;2023-03-24T09:12:01;14.30;99.90
34279;DHT22;20538;51.528;9.942;2023-03-24T09:14:27;14.60;99.90
34279;DHT22;20538;51.528;9.942;2023-03-24T09:16:55;14.60;99.90
34279;DHT22;20538;51.528;9.942;2023-03-24T09:19:21;14.50;99.90
34279;DHT22;20538;51.528;9.942;2023-03-24T09:21:47;14.30;99.90
34279;DHT22;20538;51.528;9.942;2023-03-24T09:24:13;14.40;99.90
34279;DHT22;20538;51.528;9.942;2023-03-24T09:26:40;14.40;99.90
34279;DHT22;20538;51.528;9.942;2023-03-24T09:29:06;14.30;99.90
34279;DHT22;20538;51.528;9.942;2023-03-24T09:31:32;14.30;99.90
34279;DHT22;20538;51.528;9.942;2023-03-24T09:33:57;14.10;99.90
34279;DHT22;20538;51.528;9.942;2023-03-24T09:36:24;14.00;99.90
34279;DHT22;20538;51.528;9.942;2023-03-24T09:38:50;14.00;99.90
34279;DHT22;20538;51.528;9.942;2023-03-24T09:41:28;13.90;99.90
34279;DHT22;20538;51.528;9.942;2023-03-24T09:47:11;14.00;99.90
34279;DHT22;20538;51.528;9.942;2023-03-24T09:49:41;14.20;99.90
34279;DHT22;20538;51.528;9.942;2023-03-24T09:52:12;14.50;99.90
34279;DHT22;20538;51.528;9.942;2023-03-24T09:54:50;14.60;99.90
34279;DHT22;20538;51.528;9.942;2023-03-24T09:57:38;14.50;99.90
34279;DHT22;20538;51.528;9.942;2023-03-24T10:02:41;14.90;99.90
34279;DHT22;20538;51.528;9.942;2023-03-24T10:11:08;14.90;99.90
34279;DHT22;20538;51.528;9.942;2023-03-24T10:13:52;14.80;99.90
34279;DHT22;20538;51.528;9.942;2023-03-24T10:16:45;14.60;99.90
34279;DHT22;20538;51.528;9.942;2023-03-24T10:22:05;14.00;99.90
34279;DHT22;20538;51.528;9.942;2023-03-24T10:24:43;14.00;99.90
34279;DHT22;20538;51.528;9.942;2023-03-24T10:27:49;14.00;99.90
34279;DHT22;20538;51.528;9.942;2023-03-24T10:30:37;14.10;99.90
34279;DHT22;20538;51.528;9.942;2023-03-24T10:33:04;14.30;99.90
34279;DHT22;20538;51.528;9.942;2023-03-24T10:35:37;14.50;99.90
34279;DHT22;20538;51.528;9.942;2023-03-24T10:38:15;14.50;99.90
34279;DHT22;20538;51.528;9.942;2023-03-24T10:40:42;14.90;99.90
34279;DHT22;20538;51.528;9.942;2023-03-24T10:43:08;15.10;99.90
34279;DHT22;20538;51.528;9.942;2023-03-24T10:45:37;15.30;99.90
34279;DHT22;20538;51.528;9.942;2023-03-24T10:48:04;15.40;99.90
34279;DHT22;20538;51.528;9.942;2023-03-24T10:50:32;15.40;99.90
34279;DHT22;20538;51.528;9.942;2023-03-24T10:53:00;15.30;99.90
34279;DHT22;20538;51.528;9.942;2023-03-24T10:55:36;15.20;99.90
34279;DHT22;20538;51.528;9.942;2023-03-24T11:00:43;15.30;99.90
34279;DHT22;20538;51.528;9.942;2023-03-24T11:03:16;15.20;99.90
34279;DHT22;20538;51.528;9.942;2023-03-24T11:05:46;15.20;99.90
34279;DHT22;20538;51.528;9.942;2023-03-24T11:08:32;15.10;99.90
34279;DHT22;20538;51.528;9.942;2023-03-24T11:10:58;15.20;99.90
34279;DHT22;20538;51.528;9.942;2023-03-24T11:13:30;15.30;99.90
34279;DHT22;20538;51.528;9.942;2023-03-24T11:16:14;15.40;99.90
34279;DHT22;20538;51.528;9.942;2023-03-24T11:21:25;15.30;99.90
34279;DHT22;20538;51.528;9.942;2023-03-24T11:23:50;15.40;99.90
34279;DHT22;20538;51.528;9.942;2023-03-24T11:28:57;15.80;99.90
34279;DHT22;20538;51.528;9.942;2023-03-24T11:31:27;15.90;99.90
34279;DHT22;20538;51.528;9.942;2023-03-24T11:36:46;15.60;99.90
34279;DHT22;20538;51.528;9.942;2023-03-24T11:39:13;15.70;99.90
34279;DHT22;20538;51.528;9.942;2023-03-24T11:41:49;15.50;99.90
34279;DHT22;20538;51.528;9.942;2023-03-24T11:44:23;15.60;99.90
34279;DHT22;20538;51.528;9.942;2023-03-24T11:47:23;15.70;99.90
34279;DHT22;20538;51.528;9.942;2023-03-24T11:49:55;15.60;99.90
34279;DHT22;20538;51.528;9.942;2023-03-24T11:52:26;15.60;99.90
34279;DHT22;20538;51.528;9.942;2023-03-24T11:54:54;15.30;99.90
34279;DHT22;20538;51.528;9.942;2023-03-24T11:57:46;15.30;99.90
34279;DHT22;20538;51.528;9.942;2023-03-24T12:00:28;15.30;99.90
34279;DHT22;20538;51.528;9.942;2023-03-24T12:06:06;15.00;99.90
34279;DHT22;20538;51.528;9.942;2023-03-24T12:09:01;15.00;99.90
34279;DHT22;20538;51.528;9.942;2023-03-24T12:20:25;15.50;99.90
34279;DHT22;20538;51.528;9.942;2023-03-24T12:23:08;15.70;99.90
34279;DHT22;20538;51.528;9.942;2023-03-24T12:25:43;15.80;99.90
34279;DHT22;20538;51.528;9.942;2023-03-24T12:28:15;15.90;99.90
34279;DHT22;20538;51.528;9.942;2023-03-24T12:39:01;15.80;99.90
34279;DHT22;20538;51.528;9.942;2023-03-24T12:47:22;15.50;99.90
34279;DHT22;20538;51.528;9.942;2023-03-24T12:56:39;16.40;99.90
34279;DHT22;20538;51.528;9.942;2023-03-24T13:01:26;16.50;99.90
34279;DHT22;20538;51.528;9.942;2023-03-24T13:03:58;16.00;99.90
34279;DHT22;20538;51.528;9.942;2023-03-24T13:06:29;16.00;99.90
34279;DHT22;20538;51.528;9.942;2023-03-24T13:09:05;16.10;99.90
34279;DHT22;20538;51.528;9.942;2023-03-24T13:11:46;16.00;99.90
34279;DHT22;20538;51.528;9.942;2023-03-24T13:14:20;16.00;99.90
34279;DHT22;20538;51.528;9.942;2023-03-24T13:16:48;16.20;99.90
34279;DHT22;20538;51.528;9.942;2023-03-24T13:19:21;16.60;99.90
34279;DHT22;20538;51.528;9.942;2023-03-24T13:21:50;16.70;99.90
34279;DHT22;20538;51.528;9.942;2023-03-24T13:24:17;16.90;99.90
34279;DHT22;20538;51.528;9.942;2023-03-24T13:34:59;16.20;99.90
34279;DHT22;20538;51.528;9.942;2023-03-24T13:37:41;15.90;99.90
34279;DHT22;20538;51.528;9.942;2023-03-24T13:43:15;15.20;99.90
34279;DHT22;20538;51.528;9.942;2023-03-24T13:45:57;15.10;99.90
34279;DHT22;20538;51.528;9.942;2023-03-24T13:48:29;15.20;99.90
34279;DHT22;20538;51.528;9.942;2023-03-24T13:51:29;15.30;99.90
34279;DHT22;20538;51.528;9.942;2023-03-24T13:54:13;15.50;99.90
34279;DHT22;20538;51.528;9.942;2023-03-24T13:56:51;15.70;99.90
34279;DHT22;20538;51.528;9.942;2023-03-24T13:59:28;15.60;99.90
34279;DHT22;20538;51.528;9.942;2023-03-24T14:02:22;15.80;99.90
34279;DHT22;20538;51.528;9.942;2023-03-24T14:05:08;15.70;99.90
34279;DHT22;20538;51.528;9.942;2023-03-24T14:23:40;15.60;99.90
34279;DHT22;20538;51.528;9.942;2023-03-24T14:28:45;15.30;99.90
34279;DHT22;20538;51.528;9.942;2023-03-24T14:38:55;15.20;99.90
34279;DHT22;20538;51.528;9.942;2023-03-24T14:41:28;15.10;99.90
34279;DHT22;20538;51.528;9.942;2023-03-24T14:43:59;15.20;99.90
34279;DHT22;20538;51.528;9.942;2023-03-24T14:55:04;15.40;99.90
34279;DHT22;20538;51.528;9.942;2023-03-24T14:57:38;15.50;99.90
34279;DHT22;20538;51.528;9.942;2023-03-24T15:00:21;15.60;99.90
34279;DHT22;20538;51.528;9.942;2023-03-24T15:10:51;15.90;99.90
34279;DHT22;20538;51.528;9.942;2023-03-24T15:13:30;15.90;99.90
34279;DHT22;20538;51.528;9.942;2023-03-24T15:15:58;16.00;99.90
34279;DHT22;20538;51.528;9.942;2023-03-24T15:18:24;15.80;99.90
34279;DHT22;20538;51.528;9.942;2023-03-24T15:20:51;15.60;99.90
34279;DHT22;20538;51.528;9.942;2023-03-24T15:23:19;15.50;99.90
34279;DHT22;20538;51.528;9.942;2023-03-24T15:25:46;15.30;99.90
34279;DHT22;20538;51.528;9.942;2023-03-24T15:28:20;15.30;99.90
34279;DHT22;20538;51.528;9.942;2023-03-24T15:30:47;15.50;99.90
34279;DHT22;20538;51.528;9.942;2023-03-24T15:33:13;15.70;99.90
34279;DHT22;20538;51.528;9.942;2023-03-24T15:35:39;15.70;99.90
34279;DHT22;20538;51.528;9.942;2023-03-24T15:38:05;15.60;99.90
34279;DHT22;20538;51.528;9.942;2023-03-24T15:40:33;15.50;99.90
34279;DHT22;20538;51.528;9.942;2023-03-24T15:43:05;15.40;99.90
34279;DHT22;20538;51.528;9.942;2023-03-24T15:45:35;15.30;99.90
34279;DHT22;20538;51.528;9.942;2023-03-24T15:48:07;15.30;99.90
34279;DHT22;20538;51.528;9.942;2023-03-24T15:50:41;15.30;99.90
34279;DHT22;20538;51.528;9.942;2023-03-24T15:53:41;15.30;99.90
34279;DHT22;20538;51.528;9.942;2023-03-24T16:01:17;15.10;99.90
34279;DHT22;20538;51.528;9.942;2023-03-24T16:03:44;15.00;99.90
34279;DHT22;20538;51.528;9.942;2023-03-24T16:06:25;14.90;99.90
34279;DHT22;20538;51.528;9.942;2023-03-24T16:08:51;14.80;99.90
34279;DHT22;20538;51.528;9.942;2023-03-24T16:11:17;14.70;99.90
34279;DHT22;20538;51.528;9.942;2023-03-24T16:13:44;14.80;99.90
34279;DHT22;20538;51.528;9.942;2023-03-24T16:18:41;14.80;99.90
34279;DHT22;20538;51.528;9.942;2023-03-24T16:23:40;14.60;99.90
34279;DHT22;20538;51.528;9.942;2023-03-24T16:26:27;14.50;99.90
34279;DHT22;20538;51.528;9.942;2023-03-24T16:28:54;14.30;99.90
34279;DHT22;20538;51.528;9.942;2023-03-24T16:31:29;14.10;99.90
34279;DHT22;20538;51.528;9.942;2023-03-24T16:33:55;14.10;99.90
34279;DHT22;20538;51.528;9.942;2023-03-24T16:36:22;14.00;99.90
34279;DHT22;20538;51.528;9.942;2023-03-24T16:38:52;13.90;99.90
34279;DHT22;20538;51.528;9.942;2023-03-24T16:41:18;13.80;99.90
34279;DHT22;20538;51.528;9.942;2023-03-24T16:43:44;13.80;99.90
34279;DHT22;20538;51.528;9.942;2023-03-24T16:46:31;13.90;99.90
34279;DHT22;20538;51.528;9.942;2023-03-24T16:48:58;14.00;99.90
34279;DHT22;20538;51.528;9.942;2023-03-24T16:51:25;14.10;99.90
34279;DHT22;20538;51.528;9.942;2023-03-24T16:53:51;14.00;99.90
34279;DHT22;20538;51.528;9.942;2023-03-24T16:56:19;14.00;99.90
34279;DHT22;20538;51.528;9.942;2023-03-24T16:58:46;14.00;99.90
34279;DHT22;20538;51.528;9.942;2023-03-24T17:01:17;14.00;99.90
34279;DHT22;20538;51.528;9.942;2023-03-24T17:04:02;14.00;99.90
34279;DHT22;20538;51.528;9.942;2023-03-24T17:06:31;13.90;99.90
34279;DHT22;20538;51.528;9.942;2023-03-24T17:09:00;13.90;99.90
34279;DHT22;20538;51.528;9.942;2023-03-24T17:11:29;13.80;99.90
34279;DHT22;20538;51.528;9.942;2023-03-24T17:13:56;13.80;99.90
34279;DHT22;20538;51.528;9.942;2023-03-24T17:16:30;13.80;99.90
34279;DHT22;20538;51.528;9.942;2023-03-24T17:18:56;13.80;99.90
34279;DHT22;20538;51.528;9.942;2023-03-24T17:21:23;13.80;99.90
34279;DHT22;20538;51.528;9.942;2023-03-24T17:23:52;13.70;99.90
34279;DHT22;20538;51.528;9.942;2023-03-24T17:26:20;13.70;99.90
34279;DHT22;20538;51.528;9.942;2023-03-24T17:28:46;13.70;99.90
34279;DHT22;20538;51.528;9.942;2023-03-24T17:31:12;13.70;99.90
34279;DHT22;20538;51.528;9.942;2023-03-24T17:33:37;13.70;99.90
34279;DHT22;20538;51.528;9.942;2023-03-24T17:36:03;12.70;99.90
34279;DHT22;20538;51.528;9.942;2023-03-24T17:38:29;11.50;99.90
34279;DHT22;20538;51.528;9.942;2023-03-24T17:41:00;10.60;99.90
34279;DHT22;20538;51.528;9.942;2023-03-24T17:43:25;10.30;99.90
34279;DHT22;20538;51.528;9.942;2023-03-24T17:45:55;9.90;99.90
34279;DHT22;20538;51.528;9.942;2023-03-24T17:48:21;9.90;99.90
34279;DHT22;20538;51.528;9.942;2023-03-24T17:50:47;9.70;99.90
34279;DHT22;20538;51.528;9.942;2023-03-24T17:53:12;9.80;99.90
34279;DHT22;20538;51.528;9.942;2023-03-24T17:55:40;9.80;99.90
34279;DHT22;20538;51.528;9.942;2023-03-24T17:58:06;9.90;99.90
34279;DHT22;20538;51.528;9.942;2023-03-24T18:00:33;9.80;99.90
34279;DHT22;20538;51.528;9.942;2023-03-24T18:02:59;9.90;99.90
34279;DHT22;20538;51.528;9.942;2023-03-24T18:05:24;9.90;99.90
34279;DHT22;20538;51.528;9.942;2023-03-24T18:07:50;9.90;99.90
34279;DHT22;20538;51.528;9.942;2023-03-24T18:10:16;10.00;99.90
34279;DHT22;20538;51.528;9.942;2023-03-24T18:12:42;10.10;99.90
34279;DHT22;20538;51.528;9.942;2023-03-24T18:15:09;10.20;99.90
34279;DHT22;20538;51.528;9.942;2023-03-24T18:17:34;10.20;99.90
34279;DHT22;20538;51.528;9.942;2023-03-24T18:20:00;10.10;99.90
34279;DHT22;20538;51.528;9.942;2023-03-24T18:22:35;10.20;99.90
34279;DHT22;20538;51.528;9.942;2023-03-24T18:25:02;10.20;99.90
34279;DHT22;20538;51.528;9.942;2023-03-24T18:27:28;10.30;99.90
34279;DHT22;20538;51.528;9.942;2023-03-24T18:29:54;10.20;99.90
34279;DHT22;20538;51.528;9.942;2023-03-24T18:32:21;10.10;99.90
34279;DHT22;20538;51.528;9.942;2023-03-24T18:34:47;10.00;99.90
34279;DHT22;20538;51.528;9.942;2023-03-24T18:37:13;10.00;99.90
34279;DHT22;20538;51.528;9.942;2023-03-24T18:39:40;10.00;99.90
34279;DHT22;20538;51.528;9.942;2023-03-24T18:42:06;10.10;99.90
34279;DHT22;20538;51.528;9.942;2023-03-24T18:44:32;10.00;99.90
34279;DHT22;20538;51.528;9.942;2023-03-24T18:46:57;9.90;99.90
34279;DHT22;20538;51.528;9.942;2023-03-24T18:49:23;9.80;99.90